sensor_id;sensor_type;location;lat;lon;timestamp;temperature;humidity
74101;DHT22;62462;52.530;21.682;2023-03-20T00:00:52;8.60;59.10
74101;DHT22;62462;52.530;21.682;2023-03-20T00:03:18;8.70;59.30
74101;DHT22;62462;52.530;21.682;2023-03-20T00:05:43;8.70;59.10
74101;DHT22;62462;52.530;21.682;2023-03-20T00:08:09;8.70;58.70
74101;DHT22;62462;52.530;21.682;2023-03-20T00:10:41;8.60;58.60
74101;DHT22;62462;52.530;21.682;2023-03-20T00:13:21;8.60;60.00
74101;DHT22;62462;52.530;21.682;2023-03-20T00:15:49;8.50;59.40
74101;DHT22;62462;52.530;21.682;2023-03-20T00:18:20;8.50;59.40
74101;DHT22;62462;52.530;21.682;2023-03-20T00:20:49;8.50;59.30
74101;DHT22;62462;52.530;21.682;2023-03-20T00:23:16;8.50;59.30
74101;DHT22;62462;52.530;21.682;2023-03-20T00:25:43;8.50;59.30
74101;DHT22;62462;52.530;21.682;2023-03-20T00:28:44;8.50;59.40
74101;DHT22;62462;52.530;21.682;2023-03-20T00:31:30;8.30;59.60
74101;DHT22;62462;52.530;21.682;2023-03-20T00:34:02;8.20;59.90
74101;DHT22;62462;52.530;21.682;2023-03-20T00:36:28;8.20;60.40
74101;DHT22;62462;52.530;21.682;2023-03-20T00:38:54;8.20;59.60
74101;DHT22;62462;52.530;21.682;2023-03-20T00:41:41;8.20;59.60
74101;DHT22;62462;52.530;21.682;2023-03-20T00:46:45;8.20;59.60
74101;DHT22;62462;52.530;21.682;2023-03-20T00:49:12;8.20;60.00
74101;DHT22;62462;52.530;21.682;2023-03-20T00:51:38;8.20;59.90
74101;DHT22;62462;52.530;21.682;2023-03-20T00:54:14;8.10;60.10
74101;DHT22;62462;52.530;21.682;2023-03-20T00:57:08;8.00;60.30
74101;DHT22;62462;52.530;21.682;2023-03-20T00:59:40;8.00;60.00
74101;DHT22;62462;52.530;21.682;2023-03-20T01:02:06;8.00;60.10
74101;DHT22;62462;52.530;21.682;2023-03-20T01:04:35;8.00;60.30
74101;DHT22;62462;52.530;21.682;2023-03-20T01:07:02;7.90;60.50
74101;DHT22;62462;52.530;21.682;2023-03-20T01:09:28;7.80;60.80
74101;DHT22;62462;52.530;21.682;2023-03-20T01:11:54;7.70;60.70
74101;DHT22;62462;52.530;21.682;2023-03-20T01:14:20;7.70;60.50
74101;DHT22;62462;52.530;21.682;2023-03-20T01:16:46;7.70;60.80
74101;DHT22;62462;52.530;21.682;2023-03-20T01:19:13;7.70;60.70
74101;DHT22;62462;52.530;21.682;2023-03-20T01:21:40;7.60;61.40
74101;DHT22;62462;52.530;21.682;2023-03-20T01:24:07;7.50;61.70
74101;DHT22;62462;52.530;21.682;2023-03-20T01:26:36;7.50;61.80
74101;DHT22;62462;52.530;21.682;2023-03-20T01:29:04;7.50;61.30
74101;DHT22;62462;52.530;21.682;2023-03-20T01:31:37;7.50;61.30
74101;DHT22;62462;52.530;21.682;2023-03-20T01:34:03;7.40;61.70
74101;DHT22;62462;52.530;21.682;2023-03-20T01:36:29;7.40;61.50
74101;DHT22;62462;52.530;21.682;2023-03-20T01:38:56;7.40;61.30
74101;DHT22;62462;52.530;21.682;2023-03-20T01:41:24;7.40;61.40
74101;DHT22;62462;52.530;21.682;2023-03-20T01:43:50;7.30;61.80
74101;DHT22;62462;52.530;21.682;2023-03-20T01:46:25;7.30;62.00
74101;DHT22;62462;52.530;21.682;2023-03-20T01:51:26;7.20;61.90
74101;DHT22;62462;52.530;21.682;2023-03-20T01:54:03;7.30;61.40
74101;DHT22;62462;52.530;21.682;2023-03-20T01:56:34;7.30;61.30
74101;DHT22;62462;52.530;21.682;2023-03-20T01:59:11;7.30;61.20
74101;DHT22;62462;52.530;21.682;2023-03-20T02:01:39;7.30;61.20
74101;DHT22;62462;52.530;21.682;2023-03-20T02:04:07;7.30;61.20
74101;DHT22;62462;52.530;21.682;2023-03-20T02:06:35;7.20;61.70
74101;DHT22;62462;52.530;21.682;2023-03-20T02:09:02;7.20;61.70
74101;DHT22;62462;52.530;21.682;2023-03-20T02:11:29;7.00;62.00
74101;DHT22;62462;52.530;21.682;2023-03-20T02:13:57;6.90;62.50
74101;DHT22;62462;52.530;21.682;2023-03-20T02:16:24;6.90;62.10
74101;DHT22;62462;52.530;21.682;2023-03-20T02:18:51;6.90;62.20
74101;DHT22;62462;52.530;21.682;2023-03-20T02:30:34;7.10;62.10
74101;DHT22;62462;52.530;21.682;2023-03-20T02:58:27;6.80;62.70
74101;DHT22;62462;52.530;21.682;2023-03-20T03:01:01;6.80;62.70
74101;DHT22;62462;52.530;21.682;2023-03-20T03:03:33;6.80;62.60
74101;DHT22;62462;52.530;21.682;2023-03-20T03:06:26;6.80;63.20
74101;DHT22;62462;52.530;21.682;2023-03-20T03:11:33;6.50;63.60
74101;DHT22;62462;52.530;21.682;2023-03-20T03:14:01;6.40;64.10
74101;DHT22;62462;52.530;21.682;2023-03-20T03:16:37;6.50;63.60
74101;DHT22;62462;52.530;21.682;2023-03-20T03:19:17;6.50;63.50
74101;DHT22;62462;52.530;21.682;2023-03-20T03:21:46;6.50;64.00
74101;DHT22;62462;52.530;21.682;2023-03-20T03:24:32;6.40;64.20
74101;DHT22;62462;52.530;21.682;2023-03-20T03:27:00;6.40;64.00
74101;DHT22;62462;52.530;21.682;2023-03-20T03:29:32;6.40;63.80
74101;DHT22;62462;52.530;21.682;2023-03-20T03:32:02;6.40;63.50
74101;DHT22;62462;52.530;21.682;2023-03-20T03:34:30;6.50;63.40
74101;DHT22;62462;52.530;21.682;2023-03-20T03:37:14;6.50;63.20
74101;DHT22;62462;52.530;21.682;2023-03-20T03:45:18;6.30;64.20
74101;DHT22;62462;52.530;21.682;2023-03-20T03:47:56;6.20;64.30
74101;DHT22;62462;52.530;21.682;2023-03-20T03:53:04;6.20;64.10
74101;DHT22;62462;52.530;21.682;2023-03-20T03:55:38;6.20;64.40
74101;DHT22;62462;52.530;21.682;2023-03-20T03:58:10;6.10;64.40
74101;DHT22;62462;52.530;21.682;2023-03-20T04:00:39;6.00;64.30
74101;DHT22;62462;52.530;21.682;2023-03-20T04:03:07;6.10;64.10
74101;DHT22;62462;52.530;21.682;2023-03-20T04:05:35;6.00;64.00
74101;DHT22;62462;52.530;21.682;2023-03-20T04:08:05;6.10;63.50
74101;DHT22;62462;52.530;21.682;2023-03-20T04:10:32;6.10;63.40
74101;DHT22;62462;52.530;21.682;2023-03-20T04:12:58;6.20;63.40
74101;DHT22;62462;52.530;21.682;2023-03-20T04:15:24;6.20;63.20
74101;DHT22;62462;52.530;21.682;2023-03-20T04:17:52;6.20;63.40
74101;DHT22;62462;52.530;21.682;2023-03-20T04:20:18;6.20;63.30
74101;DHT22;62462;52.530;21.682;2023-03-20T04:22:44;6.20;63.40
74101;DHT22;62462;52.530;21.682;2023-03-20T04:25:22;6.10;64.00
74101;DHT22;62462;52.530;21.682;2023-03-20T04:27:49;6.00;64.50
74101;DHT22;62462;52.530;21.682;2023-03-20T04:30:15;6.00;64.70
74101;DHT22;62462;52.530;21.682;2023-03-20T04:32:41;6.00;64.50
74101;DHT22;62462;52.530;21.682;2023-03-20T04:35:08;6.10;64.20
74101;DHT22;62462;52.530;21.682;2023-03-20T04:37:34;6.20;64.10
74101;DHT22;62462;52.530;21.682;2023-03-20T04:40:00;6.10;64.30
74101;DHT22;62462;52.530;21.682;2023-03-20T04:42:26;6.20;64.30
74101;DHT22;62462;52.530;21.682;2023-03-20T04:44:51;6.20;64.20
74101;DHT22;62462;52.530;21.682;2023-03-20T04:47:17;6.30;64.10
74101;DHT22;62462;52.530;21.682;2023-03-20T04:49:43;6.30;63.90
74101;DHT22;62462;52.530;21.682;2023-03-20T04:52:09;6.30;63.80
74101;DHT22;62462;52.530;21.682;2023-03-20T04:54:35;6.30;64.10
74101;DHT22;62462;52.530;21.682;2023-03-20T04:57:01;6.30;64.20
74101;DHT22;62462;52.530;21.682;2023-03-20T04:59:27;6.20;64.70
74101;DHT22;62462;52.530;21.682;2023-03-20T05:01:52;6.10;65.10
74101;DHT22;62462;52.530;21.682;2023-03-20T05:04:18;6.10;65.30
74101;DHT22;62462;52.530;21.682;2023-03-20T05:06:44;6.10;65.30
74101;DHT22;62462;52.530;21.682;2023-03-20T05:09:14;6.20;65.30
74101;DHT22;62462;52.530;21.682;2023-03-20T05:11:41;6.30;64.80
74101;DHT22;62462;52.530;21.682;2023-03-20T05:14:06;6.30;64.70
74101;DHT22;62462;52.530;21.682;2023-03-20T05:16:33;6.30;64.70
74101;DHT22;62462;52.530;21.682;2023-03-20T05:18:58;6.30;65.30
74101;DHT22;62462;52.530;21.682;2023-03-20T05:21:25;6.30;65.50
74101;DHT22;62462;52.530;21.682;2023-03-20T05:23:50;6.40;65.30
74101;DHT22;62462;52.530;21.682;2023-03-20T05:26:16;6.40;65.50
74101;DHT22;62462;52.530;21.682;2023-03-20T05:28:42;6.50;66.00
74101;DHT22;62462;52.530;21.682;2023-03-20T05:31:08;6.50;65.40
74101;DHT22;62462;52.530;21.682;2023-03-20T05:33:34;6.60;65.30
74101;DHT22;62462;52.530;21.682;2023-03-20T05:36:00;6.70;65.40
74101;DHT22;62462;52.530;21.682;2023-03-20T05:38:27;6.90;65.20
74101;DHT22;62462;52.530;21.682;2023-03-20T05:40:57;7.00;65.00
74101;DHT22;62462;52.530;21.682;2023-03-20T05:43:23;7.10;65.00
74101;DHT22;62462;52.530;21.682;2023-03-20T05:45:49;7.20;65.00
74101;DHT22;62462;52.530;21.682;2023-03-20T05:48:15;7.30;64.90
74101;DHT22;62462;52.530;21.682;2023-03-20T05:50:41;7.40;65.10
74101;DHT22;62462;52.530;21.682;2023-03-20T05:53:07;7.60;64.90
74101;DHT22;62462;52.530;21.682;2023-03-20T05:55:33;7.80;64.50
74101;DHT22;62462;52.530;21.682;2023-03-20T05:58:00;7.90;64.00
74101;DHT22;62462;52.530;21.682;2023-03-20T06:00:25;8.10;63.80
74101;DHT22;62462;52.530;21.682;2023-03-20T06:02:51;8.20;63.40
74101;DHT22;62462;52.530;21.682;2023-03-20T06:05:17;8.30;62.70
74101;DHT22;62462;52.530;21.682;2023-03-20T06:07:43;8.30;62.40
74101;DHT22;62462;52.530;21.682;2023-03-20T06:10:09;8.40;62.30
74101;DHT22;62462;52.530;21.682;2023-03-20T06:12:35;8.50;62.10
74101;DHT22;62462;52.530;21.682;2023-03-20T06:15:01;8.60;61.90
74101;DHT22;62462;52.530;21.682;2023-03-20T06:17:27;8.60;61.60
74101;DHT22;62462;52.530;21.682;2023-03-20T06:19:53;8.70;61.40
74101;DHT22;62462;52.530;21.682;2023-03-20T06:22:19;8.80;61.20
74101;DHT22;62462;52.530;21.682;2023-03-20T06:24:46;8.90;60.90
74101;DHT22;62462;52.530;21.682;2023-03-20T06:27:11;9.00;60.70
74101;DHT22;62462;52.530;21.682;2023-03-20T06:29:37;9.10;60.60
74101;DHT22;62462;52.530;21.682;2023-03-20T06:32:06;9.10;59.90
74101;DHT22;62462;52.530;21.682;2023-03-20T06:34:32;9.20;59.70
74101;DHT22;62462;52.530;21.682;2023-03-20T06:36:58;9.20;59.70
74101;DHT22;62462;52.530;21.682;2023-03-20T06:39:24;9.30;59.80
74101;DHT22;62462;52.530;21.682;2023-03-20T06:41:50;9.50;59.70
74101;DHT22;62462;52.530;21.682;2023-03-20T06:44:16;9.60;59.20
74101;DHT22;62462;52.530;21.682;2023-03-20T06:46:41;9.70;58.40
74101;DHT22;62462;52.530;21.682;2023-03-20T06:49:07;9.70;58.00
74101;DHT22;62462;52.530;21.682;2023-03-20T06:51:33;9.80;58.10
74101;DHT22;62462;52.530;21.682;2023-03-20T06:53:59;9.90;57.30
74101;DHT22;62462;52.530;21.682;2023-03-20T06:56:25;10.00;57.10
74101;DHT22;62462;52.530;21.682;2023-03-20T06:58:51;10.10;56.90
74101;DHT22;62462;52.530;21.682;2023-03-20T07:01:17;10.10;55.80
74101;DHT22;62462;52.530;21.682;2023-03-20T07:03:45;10.20;55.90
74101;DHT22;62462;52.530;21.682;2023-03-20T07:06:11;10.40;56.30
74101;DHT22;62462;52.530;21.682;2023-03-20T07:08:38;10.60;56.50
74101;DHT22;62462;52.530;21.682;2023-03-20T07:11:05;10.80;54.40
74101;DHT22;62462;52.530;21.682;2023-03-20T07:13:31;10.70;53.80
74101;DHT22;62462;52.530;21.682;2023-03-20T07:15:59;10.80;54.70
74101;DHT22;62462;52.530;21.682;2023-03-20T07:18:25;10.80;54.50
74101;DHT22;62462;52.530;21.682;2023-03-20T07:20:52;10.90;54.20
74101;DHT22;62462;52.530;21.682;2023-03-20T07:23:18;11.00;54.50
74101;DHT22;62462;52.530;21.682;2023-03-20T07:25:44;11.10;54.50
74101;DHT22;62462;52.530;21.682;2023-03-20T07:28:11;11.30;54.40
74101;DHT22;62462;52.530;21.682;2023-03-20T07:30:37;11.40;53.70
74101;DHT22;62462;52.530;21.682;2023-03-20T07:33:03;11.50;53.80
74101;DHT22;62462;52.530;21.682;2023-03-20T07:35:29;11.60;54.10
74101;DHT22;62462;52.530;21.682;2023-03-20T07:37:55;11.80;54.30
74101;DHT22;62462;52.530;21.682;2023-03-20T07:40:21;12.00;53.60
74101;DHT22;62462;52.530;21.682;2023-03-20T07:42:47;12.20;52.70
74101;DHT22;62462;52.530;21.682;2023-03-20T07:45:13;12.40;52.50
74101;DHT22;62462;52.530;21.682;2023-03-20T07:47:41;12.50;52.50
74101;DHT22;62462;52.530;21.682;2023-03-20T07:50:07;12.70;52.60
74101;DHT22;62462;52.530;21.682;2023-03-20T07:52:33;12.80;51.10
74101;DHT22;62462;52.530;21.682;2023-03-20T07:54:59;12.90;50.50
74101;DHT22;62462;52.530;21.682;2023-03-20T07:57:25;13.00;50.70
74101;DHT22;62462;52.530;21.682;2023-03-20T07:59:51;13.10;51.10
74101;DHT22;62462;52.530;21.682;2023-03-20T08:02:17;13.20;50.20
74101;DHT22;62462;52.530;21.682;2023-03-20T08:04:44;13.40;49.50
74101;DHT22;62462;52.530;21.682;2023-03-20T08:07:11;13.50;48.70
74101;DHT22;62462;52.530;21.682;2023-03-20T08:09:37;13.70;49.10
74101;DHT22;62462;52.530;21.682;2023-03-20T08:12:04;13.70;47.80
74101;DHT22;62462;52.530;21.682;2023-03-20T08:14:30;13.80;48.40
74101;DHT22;62462;52.530;21.682;2023-03-20T08:16:57;13.80;47.50
74101;DHT22;62462;52.530;21.682;2023-03-20T08:19:23;13.90;48.10
74101;DHT22;62462;52.530;21.682;2023-03-20T08:21:48;14.00;47.00
74101;DHT22;62462;52.530;21.682;2023-03-20T08:24:16;14.10;47.40
74101;DHT22;62462;52.530;21.682;2023-03-20T08:26:42;14.20;46.30
74101;DHT22;62462;52.530;21.682;2023-03-20T08:29:09;14.40;47.10
74101;DHT22;62462;52.530;21.682;2023-03-20T08:31:34;14.60;47.70
74101;DHT22;62462;52.530;21.682;2023-03-20T08:34:00;14.80;47.70
74101;DHT22;62462;52.530;21.682;2023-03-20T08:36:26;15.10;46.70
74101;DHT22;62462;52.530;21.682;2023-03-20T08:38:52;15.10;44.10
74101;DHT22;62462;52.530;21.682;2023-03-20T08:41:19;15.10;43.10
74101;DHT22;62462;52.530;21.682;2023-03-20T08:43:45;15.20;44.00
74101;DHT22;62462;52.530;21.682;2023-03-20T08:46:12;15.40;44.10
74101;DHT22;62462;52.530;21.682;2023-03-20T08:48:38;15.60;45.00
74101;DHT22;62462;52.530;21.682;2023-03-20T08:51:04;15.70;43.40
74101;DHT22;62462;52.530;21.682;2023-03-20T08:53:30;15.90;43.60
74101;DHT22;62462;52.530;21.682;2023-03-20T08:55:56;16.00;43.60
74101;DHT22;62462;52.530;21.682;2023-03-20T08:58:22;16.10;40.80
74101;DHT22;62462;52.530;21.682;2023-03-20T09:00:48;16.10;41.00
74101;DHT22;62462;52.530;21.682;2023-03-20T09:03:16;16.10;41.80
74101;DHT22;62462;52.530;21.682;2023-03-20T09:05:44;16.30;41.90
74101;DHT22;62462;52.530;21.682;2023-03-20T09:08:10;16.50;42.70
74101;DHT22;62462;52.530;21.682;2023-03-20T09:10:36;16.70;40.20
74101;DHT22;62462;52.530;21.682;2023-03-20T09:13:02;16.60;40.40
74101;DHT22;62462;52.530;21.682;2023-03-20T09:15:28;16.30;40.40
74101;DHT22;62462;52.530;21.682;2023-03-20T09:17:54;16.10;39.90
74101;DHT22;62462;52.530;21.682;2023-03-20T09:20:20;16.20;40.20
74101;DHT22;62462;52.530;21.682;2023-03-20T09:22:46;16.30;39.80
74101;DHT22;62462;52.530;21.682;2023-03-20T09:25:12;16.40;40.40
74101;DHT22;62462;52.530;21.682;2023-03-20T09:27:38;16.60;40.00
74101;DHT22;62462;52.530;21.682;2023-03-20T09:30:05;16.80;40.00
74101;DHT22;62462;52.530;21.682;2023-03-20T09:32:32;16.90;38.80
74101;DHT22;62462;52.530;21.682;2023-03-20T09:35:00;16.80;39.00
74101;DHT22;62462;52.530;21.682;2023-03-20T09:37:26;16.90;39.90
74101;DHT22;62462;52.530;21.682;2023-03-20T09:39:52;16.90;39.30
74101;DHT22;62462;52.530;21.682;2023-03-20T09:42:51;16.80;38.80
74101;DHT22;62462;52.530;21.682;2023-03-20T09:48:40;16.90;39.30
74101;DHT22;62462;52.530;21.682;2023-03-20T09:54:27;17.50;41.00
74101;DHT22;62462;52.530;21.682;2023-03-20T09:56:55;17.80;38.80
74101;DHT22;62462;52.530;21.682;2023-03-20T09:59:24;18.00;37.80
74101;DHT22;62462;52.530;21.682;2023-03-20T10:01:58;18.20;37.90
74101;DHT22;62462;52.530;21.682;2023-03-20T10:04:27;18.10;36.10
74101;DHT22;62462;52.530;21.682;2023-03-20T10:06:54;18.10;38.00
74101;DHT22;62462;52.530;21.682;2023-03-20T10:09:30;18.20;38.60
74101;DHT22;62462;52.530;21.682;2023-03-20T10:19:56;18.40;34.90
74101;DHT22;62462;52.530;21.682;2023-03-20T10:22:35;18.30;36.60
74101;DHT22;62462;52.530;21.682;2023-03-20T10:25:29;18.30;36.50
74101;DHT22;62462;52.530;21.682;2023-03-20T10:33:40;18.40;36.20
74101;DHT22;62462;52.530;21.682;2023-03-20T10:39:40;18.50;34.50
74101;DHT22;62462;52.530;21.682;2023-03-20T10:42:17;18.50;35.70
74101;DHT22;62462;52.530;21.682;2023-03-20T10:44:49;18.60;35.90
74101;DHT22;62462;52.530;21.682;2023-03-20T10:47:21;18.70;37.30
74101;DHT22;62462;52.530;21.682;2023-03-20T10:50:04;19.00;37.10
74101;DHT22;62462;52.530;21.682;2023-03-20T10:52:35;19.30;37.40
74101;DHT22;62462;52.530;21.682;2023-03-20T10:55:06;19.50;35.90
74101;DHT22;62462;52.530;21.682;2023-03-20T10:57:38;19.60;35.20
74101;DHT22;62462;52.530;21.682;2023-03-20T11:00:12;19.60;34.00
74101;DHT22;62462;52.530;21.682;2023-03-20T11:02:38;19.50;33.00
74101;DHT22;62462;52.530;21.682;2023-03-20T11:05:31;19.40;33.10
74101;DHT22;62462;52.530;21.682;2023-03-20T11:08:11;19.30;34.60
74101;DHT22;62462;52.530;21.682;2023-03-20T11:10:39;19.30;34.00
74101;DHT22;62462;52.530;21.682;2023-03-20T11:13:26;19.20;34.50
74101;DHT22;62462;52.530;21.682;2023-03-20T11:15:53;19.20;34.20
74101;DHT22;62462;52.530;21.682;2023-03-20T11:18:24;19.30;34.70
74101;DHT22;62462;52.530;21.682;2023-03-20T11:20:54;19.30;34.70
74101;DHT22;62462;52.530;21.682;2023-03-20T11:23:42;19.30;34.80
74101;DHT22;62462;52.530;21.682;2023-03-20T11:26:14;19.50;35.80
74101;DHT22;62462;52.530;21.682;2023-03-20T11:28:58;19.40;34.10
74101;DHT22;62462;52.530;21.682;2023-03-20T11:31:36;19.40;36.20
74101;DHT22;62462;52.530;21.682;2023-03-20T11:36:55;19.90;36.40
74101;DHT22;62462;52.530;21.682;2023-03-20T11:39:24;20.10;34.70
74101;DHT22;62462;52.530;21.682;2023-03-20T11:41:53;20.10;34.00
74101;DHT22;62462;52.530;21.682;2023-03-20T11:44:31;20.00;34.20
74101;DHT22;62462;52.530;21.682;2023-03-20T11:47:05;20.10;34.50
74101;DHT22;62462;52.530;21.682;2023-03-20T11:50:12;20.20;34.00
74101;DHT22;62462;52.530;21.682;2023-03-20T11:52:48;20.10;34.40
74101;DHT22;62462;52.530;21.682;2023-03-20T11:55:34;19.90;34.80
74101;DHT22;62462;52.530;21.682;2023-03-20T11:58:03;19.80;35.70
74101;DHT22;62462;52.530;21.682;2023-03-20T12:00:40;19.80;35.90
74101;DHT22;62462;52.530;21.682;2023-03-20T12:03:36;19.90;36.10
74101;DHT22;62462;52.530;21.682;2023-03-20T12:06:13;20.20;35.70
74101;DHT22;62462;52.530;21.682;2023-03-20T12:08:42;20.40;36.50
74101;DHT22;62462;52.530;21.682;2023-03-20T12:14:07;20.30;34.60
74101;DHT22;62462;52.530;21.682;2023-03-20T12:16:37;20.20;35.60
74101;DHT22;62462;52.530;21.682;2023-03-20T12:19:12;20.10;35.40
74101;DHT22;62462;52.530;21.682;2023-03-20T12:21:58;20.10;35.70
74101;DHT22;62462;52.530;21.682;2023-03-20T12:27:35;20.00;36.00
74101;DHT22;62462;52.530;21.682;2023-03-20T12:33:09;20.00;35.80
74101;DHT22;62462;52.530;21.682;2023-03-20T12:35:42;20.00;35.80
74101;DHT22;62462;52.530;21.682;2023-03-20T12:38:27;19.90;36.20
74101;DHT22;62462;52.530;21.682;2023-03-20T12:41:29;19.70;36.20
74101;DHT22;62462;52.530;21.682;2023-03-20T12:46:42;19.70;36.60
74101;DHT22;62462;52.530;21.682;2023-03-20T12:49:17;19.80;36.50
74101;DHT22;62462;52.530;21.682;2023-03-20T12:52:24;19.80;36.80
74101;DHT22;62462;52.530;21.682;2023-03-20T12:55:20;19.80;37.40
74101;DHT22;62462;52.530;21.682;2023-03-20T12:57:55;19.90;36.90
74101;DHT22;62462;52.530;21.682;2023-03-20T13:00:36;20.20;37.00
74101;DHT22;62462;52.530;21.682;2023-03-20T13:03:31;20.10;35.90
74101;DHT22;62462;52.530;21.682;2023-03-20T13:11:50;19.60;37.50
74101;DHT22;62462;52.530;21.682;2023-03-20T13:14:25;19.50;37.90
74101;DHT22;62462;52.530;21.682;2023-03-20T13:31:34;18.40;40.40
74101;DHT22;62462;52.530;21.682;2023-03-20T13:34:40;18.30;41.10
74101;DHT22;62462;52.530;21.682;2023-03-20T13:37:22;18.20;41.20
74101;DHT22;62462;52.530;21.682;2023-03-20T13:42:56;18.10;41.80
74101;DHT22;62462;52.530;21.682;2023-03-20T13:45:37;17.90;42.00
74101;DHT22;62462;52.530;21.682;2023-03-20T13:51:07;18.00;42.50
74101;DHT22;62462;52.530;21.682;2023-03-20T13:53:51;18.10;42.20
74101;DHT22;62462;52.530;21.682;2023-03-20T14:00:13;18.10;41.50
74101;DHT22;62462;52.530;21.682;2023-03-20T14:05:37;18.10;41.80
74101;DHT22;62462;52.530;21.682;2023-03-20T14:13:31;17.40;43.30
74101;DHT22;62462;52.530;21.682;2023-03-20T14:16:02;17.30;43.60
74101;DHT22;62462;52.530;21.682;2023-03-20T14:18:29;17.30;43.90
74101;DHT22;62462;52.530;21.682;2023-03-20T14:20:58;17.30;43.60
74101;DHT22;62462;52.530;21.682;2023-03-20T14:23:36;17.40;43.70
74101;DHT22;62462;52.530;21.682;2023-03-20T14:26:26;17.30;43.80
74101;DHT22;62462;52.530;21.682;2023-03-20T14:29:00;17.30;44.00
74101;DHT22;62462;52.530;21.682;2023-03-20T14:31:32;17.20;43.80
74101;DHT22;62462;52.530;21.682;2023-03-20T14:41:59;16.80;45.20
74101;DHT22;62462;52.530;21.682;2023-03-20T14:44:49;16.90;45.20
74101;DHT22;62462;52.530;21.682;2023-03-20T14:57:56;17.00;45.80
74101;DHT22;62462;52.530;21.682;2023-03-20T15:00:33;16.90;46.10
74101;DHT22;62462;52.530;21.682;2023-03-20T15:03:13;16.80;46.70
74101;DHT22;62462;52.530;21.682;2023-03-20T15:05:40;16.70;47.10
74101;DHT22;62462;52.530;21.682;2023-03-20T15:08:27;16.60;47.60
74101;DHT22;62462;52.530;21.682;2023-03-20T15:11:07;16.60;48.20
74101;DHT22;62462;52.530;21.682;2023-03-20T15:13:34;16.50;49.70
74101;DHT22;62462;52.530;21.682;2023-03-20T15:16:07;16.40;50.40
74101;DHT22;62462;52.530;21.682;2023-03-20T15:18:50;16.30;51.00
74101;DHT22;62462;52.530;21.682;2023-03-20T15:21:39;16.30;51.30
74101;DHT22;62462;52.530;21.682;2023-03-20T15:24:05;16.30;52.70
74101;DHT22;62462;52.530;21.682;2023-03-20T15:26:33;16.30;53.80
74101;DHT22;62462;52.530;21.682;2023-03-20T15:29:09;16.30;54.20
74101;DHT22;62462;52.530;21.682;2023-03-20T15:31:37;16.30;55.40
74101;DHT22;62462;52.530;21.682;2023-03-20T15:34:11;16.20;56.30
74101;DHT22;62462;52.530;21.682;2023-03-20T15:36:39;16.20;56.80
74101;DHT22;62462;52.530;21.682;2023-03-20T15:41:49;16.00;59.20
74101;DHT22;62462;52.530;21.682;2023-03-20T15:46:54;15.80;60.80
74101;DHT22;62462;52.530;21.682;2023-03-20T15:49:21;15.80;61.20
74101;DHT22;62462;52.530;21.682;2023-03-20T15:51:48;15.60;61.80
74101;DHT22;62462;52.530;21.682;2023-03-20T15:54:16;15.60;61.30
74101;DHT22;62462;52.530;21.682;2023-03-20T15:56:43;15.60;62.00
74101;DHT22;62462;52.530;21.682;2023-03-20T15:59:22;15.50;62.00
74101;DHT22;62462;52.530;21.682;2023-03-20T16:01:52;15.50;61.90
74101;DHT22;62462;52.530;21.682;2023-03-20T16:04:18;15.50;62.10
74101;DHT22;62462;52.530;21.682;2023-03-20T16:06:56;15.50;62.20
74101;DHT22;62462;52.530;21.682;2023-03-20T16:09:23;15.40;62.90
74101;DHT22;62462;52.530;21.682;2023-03-20T16:11:58;15.30;64.10
74101;DHT22;62462;52.530;21.682;2023-03-20T16:14:27;15.20;63.10
74101;DHT22;62462;52.530;21.682;2023-03-20T16:16:55;15.20;63.10
74101;DHT22;62462;52.530;21.682;2023-03-20T16:19:24;15.10;63.40
74101;DHT22;62462;52.530;21.682;2023-03-20T16:22:00;15.10;62.70
74101;DHT22;62462;52.530;21.682;2023-03-20T16:24:35;15.10;62.90
74101;DHT22;62462;52.530;21.682;2023-03-20T16:27:06;15.10;63.10
74101;DHT22;62462;52.530;21.682;2023-03-20T16:29:32;15.00;63.30
74101;DHT22;62462;52.530;21.682;2023-03-20T16:32:06;14.90;64.00
74101;DHT22;62462;52.530;21.682;2023-03-20T16:34:35;14.80;64.40
74101;DHT22;62462;52.530;21.682;2023-03-20T16:37:08;14.80;64.30
74101;DHT22;62462;52.530;21.682;2023-03-20T16:39:46;14.80;64.70
74101;DHT22;62462;52.530;21.682;2023-03-20T16:42:38;14.70;65.40
74101;DHT22;62462;52.530;21.682;2023-03-20T16:45:07;14.60;65.90
74101;DHT22;62462;52.530;21.682;2023-03-20T16:47:40;14.60;65.40
74101;DHT22;62462;52.530;21.682;2023-03-20T16:50:22;14.60;66.30
74101;DHT22;62462;52.530;21.682;2023-03-20T16:52:58;14.50;67.00
74101;DHT22;62462;52.530;21.682;2023-03-20T16:55:29;14.50;67.00
74101;DHT22;62462;52.530;21.682;2023-03-20T16:58:02;14.40;67.10
74101;DHT22;62462;52.530;21.682;2023-03-20T17:00:44;14.50;66.40
74101;DHT22;62462;52.530;21.682;2023-03-20T17:03:18;14.50;67.00
74101;DHT22;62462;52.530;21.682;2023-03-20T17:06:03;14.50;66.90
74101;DHT22;62462;52.530;21.682;2023-03-20T17:08:34;14.50;66.60
74101;DHT22;62462;52.530;21.682;2023-03-20T17:11:09;14.50;66.10
74101;DHT22;62462;52.530;21.682;2023-03-20T17:13:37;14.60;65.60
74101;DHT22;62462;52.530;21.682;2023-03-20T17:16:03;14.60;65.20
74101;DHT22;62462;52.530;21.682;2023-03-20T17:18:29;14.70;65.60
74101;DHT22;62462;52.530;21.682;2023-03-20T17:20:55;14.60;65.50
74101;DHT22;62462;52.530;21.682;2023-03-20T17:23:22;14.60;66.00
74101;DHT22;62462;52.530;21.682;2023-03-20T17:25:49;14.50;66.50
74101;DHT22;62462;52.530;21.682;2023-03-20T17:28:21;14.50;66.30
74101;DHT22;62462;52.530;21.682;2023-03-20T17:30:49;14.50;66.50
74101;DHT22;62462;52.530;21.682;2023-03-20T17:33:17;14.40;67.40
74101;DHT22;62462;52.530;21.682;2023-03-20T17:35:43;14.30;68.60
74101;DHT22;62462;52.530;21.682;2023-03-20T17:38:16;14.20;68.80
74101;DHT22;62462;52.530;21.682;2023-03-20T17:40:42;14.10;69.00
74101;DHT22;62462;52.530;21.682;2023-03-20T17:43:13;14.10;69.00
74101;DHT22;62462;52.530;21.682;2023-03-20T17:45:39;14.10;70.00
74101;DHT22;62462;52.530;21.682;2023-03-20T17:48:12;14.00;70.20
74101;DHT22;62462;52.530;21.682;2023-03-20T17:50:46;13.90;70.40
74101;DHT22;62462;52.530;21.682;2023-03-20T17:53:20;13.90;70.60
74101;DHT22;62462;52.530;21.682;2023-03-20T17:55:48;13.80;70.60
74101;DHT22;62462;52.530;21.682;2023-03-20T17:58:20;13.80;70.90
74101;DHT22;62462;52.530;21.682;2023-03-20T18:00:50;13.80;70.30
74101;DHT22;62462;52.530;21.682;2023-03-20T18:03:17;13.90;70.80
74101;DHT22;62462;52.530;21.682;2023-03-20T18:05:45;13.90;69.50
74101;DHT22;62462;52.530;21.682;2023-03-20T18:08:16;13.90;69.80
74101;DHT22;62462;52.530;21.682;2023-03-20T18:10:46;13.90;69.00
74101;DHT22;62462;52.530;21.682;2023-03-20T18:13:13;14.00;68.40
74101;DHT22;62462;52.530;21.682;2023-03-20T18:15:39;14.00;68.70